»·PEaware :: ASA627 KLAS-KPDX

ASA627 :: KLAS-KPDX

FLIGHT INFORMATION

Flight Status: Arrived
Operator:
Alaska Airlines
More flights by this operator :: More flights under this callsign
Pilot: Aundrey S. (17120)
Aircraft: BOEING 737-800
(B738)
More flights by this aircraft type
Origin: KLAS McCarran Intl
United States
Destination: KPDX Portland Intl
United States
More flights between these airports :: More routes between these airports
Route: +SHEAD1 OAL J92 YERIN DCT SOERN TMBRS2
File this flight plan on PilotEdge
Remarks:
Altitude:
(Current/Filed)
38,000ft
Speed:
(Current/Filed)
450kts
Departed: 29-Dec-17 07:19 PM
Arrived: 29-Dec-17 09:26 PM
Distance/Time
Traveled:
662nm/2:07
Distance/Time
To Go:
Arrived

Flight Plot

Page will automatically refresh every two minutes.

Flight plan parsing failed; only flown route is shown


Map Options




Map Legend


Flown Route
Filed Route
Departure Airport
Arrival Airport
Navaid (VOR, NDB)
Fix

Horizontal Profiles

Position Reports

Time Latitude Longitude Heading Altitude Ground
Speed
29-Dec-17 18:45 36.085317 -115.140010 0 2064ft 0kts
29-Dec-17 18:46 36.085317 -115.140010 0 2064ft 0kts
29-Dec-17 18:47 36.085317 -115.140010 0 2064ft 0kts
29-Dec-17 18:48 36.085317 -115.140010 0 2064ft 0kts
29-Dec-17 18:49 36.085317 -115.140010 0 2064ft 0kts
29-Dec-17 18:50 36.085317 -115.140010 0 2064ft 0kts
29-Dec-17 18:51 36.085317 -115.140010 0 2064ft 0kts
29-Dec-17 18:52 36.085317 -115.140010 0 2064ft 0kts
29-Dec-17 18:53 36.085317 -115.140010 0 2064ft 0kts
29-Dec-17 18:54 36.085317 -115.140010 0 2064ft 0kts
29-Dec-17 18:55 36.085317 -115.140010 0 2064ft 0kts
29-Dec-17 18:56 36.085317 -115.140010 0 2064ft 0kts
29-Dec-17 18:57 36.085317 -115.140010 0 2064ft 0kts
29-Dec-17 18:58 36.085317 -115.140010 0 2064ft 0kts
29-Dec-17 18:59 36.085317 -115.140010 0 2064ft 0kts
29-Dec-17 19:00 36.085317 -115.140010 0 2064ft 0kts
29-Dec-17 19:01 36.085317 -115.140010 0 2064ft 0kts
29-Dec-17 19:02 36.085317 -115.140010 0 2064ft 0kts
29-Dec-17 19:03 36.085317 -115.140010 0 2064ft 0kts
29-Dec-17 19:04 36.085317 -115.140010 0 2064ft 0kts
29-Dec-17 19:05 36.085317 -115.140010 0 2064ft 0kts
29-Dec-17 19:06 36.085317 -115.140010 0 2064ft 0kts
29-Dec-17 19:07 36.085317 -115.140010 0 2064ft 0kts
29-Dec-17 19:08 36.085317 -115.140010 0 2064ft 0kts
29-Dec-17 19:09 36.085317 -115.140010 0 2064ft 0kts
29-Dec-17 19:10 36.085317 -115.140010 0 2064ft 0kts
29-Dec-17 19:11 36.085317 -115.140010 0 2064ft 0kts
29-Dec-17 19:12 36.084620 -115.139529 269 2064ft 0kts
29-Dec-17 19:13 36.084620 -115.139529 269 2064ft 0kts
29-Dec-17 19:14 36.084620 -115.139529 269 2064ft 0kts
29-Dec-17 19:15 36.084620 -115.139529 269 2064ft 0kts
29-Dec-17 19:16 36.084620 -115.139529 269 2064ft 0kts
29-Dec-17 19:17 36.084620 -115.139529 269 2064ft 0kts
29-Dec-17 19:18 36.084620 -115.139559 269 2064ft 3kts
29-Dec-17 19:19 36.082340 -115.141588 179 2073ft 16kts
29-Dec-17 19:20 36.078452 -115.141371 133 2083ft 12kts
29-Dec-17 19:21 36.078270 -115.133272 89 2058ft 26kts
29-Dec-17 19:22 36.078285 -115.124631 90 2038ft 22kts
29-Dec-17 19:23 36.077480 -115.121495 135 2036ft 0kts
29-Dec-17 19:24 36.077476 -115.121491 136 2036ft 0kts
29-Dec-17 19:25 36.076424 -115.123628 270 2039ft 60kts
29-Dec-17 19:26 36.076468 -115.180207 269 3753ft 214kts
29-Dec-17 19:27 36.058633 -115.258994 219 6048ft 272kts
29-Dec-17 19:28 35.988005 -115.293998 202 6981ft 276kts
29-Dec-17 19:29 35.929257 -115.352521 224 8973ft 275kts
29-Dec-17 19:30 35.887147 -115.429869 266 10353ft 292kts
29-Dec-17 19:31 35.888190 -115.536613 271 10973ft 317kts
29-Dec-17 19:32 35.890373 -115.645022 271 10972ft 317kts
29-Dec-17 19:33 35.892148 -115.753531 271 13741ft 321kts
29-Dec-17 19:34 35.893960 -115.866663 268 14975ft 345kts
29-Dec-17 19:35 35.909981 -115.982237 302 16653ft 360kts
29-Dec-17 19:36 35.967520 -116.053949 314 18693ft 365kts
29-Dec-17 19:37 36.041287 -116.139809 314 21192ft 365kts
29-Dec-17 19:38 36.115675 -116.226129 314 22735ft 376kts
29-Dec-17 19:39 36.192392 -116.315049 314 23826ft 381kts
29-Dec-17 19:40 36.270235 -116.405204 314 24922ft 386kts
29-Dec-17 19:41 36.348651 -116.495945 314 26009ft 389kts
29-Dec-17 19:42 36.427600 -116.587221 314 27090ft 388kts
29-Dec-17 19:43 36.505026 -116.677680 313 28160ft 385kts
29-Dec-17 19:44 36.584833 -116.764754 325 29251ft 383kts
29-Dec-17 19:45 36.675081 -116.832905 325 30204ft 379kts
29-Dec-17 19:46 36.764212 -116.901274 325 30968ft 378kts
29-Dec-17 19:47 36.854621 -116.970596 325 31341ft 387kts
29-Dec-17 19:48 36.947105 -117.041470 325 31664ft 395kts
29-Dec-17 19:49 37.041125 -117.113491 325 31981ft 400kts
29-Dec-17 19:50 37.136193 -117.186285 325 32236ft 406kts
29-Dec-17 19:51 37.233580 -117.260821 325 32293ft 416kts
29-Dec-17 19:52 37.333545 -117.333541 330 32294ft 418kts
29-Dec-17 19:53 37.436715 -117.400550 329 32289ft 418kts
29-Dec-17 19:54 37.539306 -117.467584 329 32289ft 418kts
29-Dec-17 19:55 37.642003 -117.534552 326 32288ft 406kts
29-Dec-17 19:56 37.741648 -117.599719 326 32286ft 404kts
29-Dec-17 19:57 37.840093 -117.663981 325 32296ft 404kts
29-Dec-17 19:58 37.939795 -117.729052 326 32295ft 404kts
29-Dec-17 19:59 38.032339 -117.804637 309 32308ft 391kts
29-Dec-17 20:00 38.110117 -117.899577 310 32292ft 392kts
29-Dec-17 20:01 38.188749 -117.994778 310 32291ft 392kts
29-Dec-17 20:02 38.267698 -118.090270 310 32290ft 392kts
29-Dec-17 20:03 38.346727 -118.185765 310 32289ft 392kts
29-Dec-17 20:04 38.425465 -118.280818 311 32281ft 393kts
29-Dec-17 20:05 38.504479 -118.376111 311 32233ft 392kts
29-Dec-17 20:06 38.582887 -118.472440 310 32233ft 391kts
29-Dec-17 20:07 38.661123 -118.569094 310 32232ft 392kts
29-Dec-17 20:08 38.737855 -118.663788 310 32239ft 392kts
29-Dec-17 20:09 38.816177 -118.760385 310 32240ft 392kts
29-Dec-17 20:10 38.894562 -118.856917 310 32240ft 392kts
29-Dec-17 20:11 38.973392 -118.953724 313 32236ft 393kts
29-Dec-17 20:12 39.069720 -119.025131 324 32238ft 403kts
29-Dec-17 20:13 39.166329 -119.094923 324 32235ft 403kts
29-Dec-17 20:14 39.263978 -119.165508 324 32235ft 402kts
29-Dec-17 20:15 39.361178 -119.235750 324 32234ft 403kts
29-Dec-17 20:16 39.459163 -119.306534 324 32234ft 403kts
29-Dec-17 20:17 39.556636 -119.376929 324 32233ft 403kts
29-Dec-17 20:18 39.654333 -119.447467 324 32285ft 404kts
29-Dec-17 20:19 39.752351 -119.518211 324 32286ft 403kts
29-Dec-17 20:20 39.848549 -119.587621 324 32286ft 403kts
29-Dec-17 20:21 39.945122 -119.657283 324 32291ft 403kts
29-Dec-17 20:22 40.042924 -119.727839 324 32295ft 402kts
29-Dec-17 20:23 40.139562 -119.797502 324 32293ft 402kts
29-Dec-17 20:24 40.237208 -119.867867 324 32221ft 402kts
29-Dec-17 20:25 40.334859 -119.938210 322 32210ft 402kts
29-Dec-17 20:26 40.432718 -120.008687 322 32210ft 402kts
29-Dec-17 20:27 40.529361 -120.078296 322 32213ft 397kts
29-Dec-17 20:28 40.626958 -120.148502 322 32209ft 401kts
29-Dec-17 20:29 40.724575 -120.218723 322 32208ft 400kts
29-Dec-17 20:30 40.821870 -120.288698 322 32192ft 401kts
29-Dec-17 20:31 40.919675 -120.359010 322 32180ft 400kts
29-Dec-17 20:32 41.016948 -120.428916 322 32197ft 400kts
29-Dec-17 20:33 41.112348 -120.497451 322 32176ft 400kts
29-Dec-17 20:34 41.209976 -120.567563 322 32173ft 400kts
29-Dec-17 20:35 41.306335 -120.636763 321 32175ft 396kts
29-Dec-17 20:36 41.402272 -120.705629 321 32187ft 399kts
29-Dec-17 20:37 41.499662 -120.775492 321 32186ft 398kts
29-Dec-17 20:38 41.596927 -120.845240 321 32186ft 398kts
29-Dec-17 20:39 41.694399 -120.915110 321 32186ft 398kts
29-Dec-17 20:40 41.791122 -120.984427 321 32180ft 393kts
29-Dec-17 20:41 41.888132 -121.053910 321 32158ft 399kts
29-Dec-17 20:42 41.985708 -121.123765 321 32157ft 398kts
29-Dec-17 20:43 42.083292 -121.193607 321 32157ft 398kts
29-Dec-17 20:44 42.179278 -121.262276 321 32177ft 397kts
29-Dec-17 20:45 42.276462 -121.331778 321 32177ft 396kts
29-Dec-17 20:46 42.373389 -121.401067 321 32176ft 396kts
29-Dec-17 20:47 42.469830 -121.469981 321 32175ft 395kts
29-Dec-17 20:48 42.566492 -121.539045 321 32177ft 394kts
29-Dec-17 20:49 42.663688 -121.608423 321 32175ft 396kts
29-Dec-17 20:50 42.760039 -121.677220 320 32189ft 395kts
29-Dec-17 20:51 42.856929 -121.746360 320 32190ft 395kts
29-Dec-17 20:52 42.954058 -121.815622 320 32189ft 395kts
29-Dec-17 20:53 43.050028 -121.886663 318 32082ft 392kts
29-Dec-17 20:54 43.143389 -121.959642 318 31993ft 393kts
29-Dec-17 20:55 43.237811 -122.033280 318 32079ft 391kts
29-Dec-17 20:56 43.332457 -122.107034 318 32100ft 389kts
29-Dec-17 20:57 43.426547 -122.180403 318 32059ft 393kts
29-Dec-17 20:58 43.521115 -122.254167 318 32096ft 392kts
29-Dec-17 20:59 43.614982 -122.328743 318 31694ft 393kts
29-Dec-17 21:00 43.707763 -122.402436 318 30251ft 381kts
29-Dec-17 21:01 43.798235 -122.474327 318 28817ft 373kts
29-Dec-17 21:02 43.886997 -122.544812 318 27377ft 364kts
29-Dec-17 21:03 43.973854 -122.613774 319 26479ft 359kts
29-Dec-17 21:04 44.059452 -122.681726 318 25682ft 353kts
29-Dec-17 21:05 44.144160 -122.745570 331 24906ft 365kts
29-Dec-17 21:06 44.250012 -122.743353 353 23190ft 384kts
29-Dec-17 21:07 44.354295 -122.732914 352 21201ft 370kts
29-Dec-17 21:08 44.454727 -122.722987 352 19261ft 358kts
29-Dec-17 21:09 44.552488 -122.713344 353 17484ft 349kts
29-Dec-17 21:10 44.647977 -122.703810 353 15706ft 340kts
29-Dec-17 21:11 44.740810 -122.694477 354 13935ft 332kts
29-Dec-17 21:12 44.828553 -122.685604 354 12180ft 312kts
29-Dec-17 21:13 44.913499 -122.677028 355 11068ft 304kts
29-Dec-17 21:14 44.998369 -122.668252 355 11062ft 307kts
29-Dec-17 21:15 45.083043 -122.659871 355 10119ft 302kts
29-Dec-17 21:16 45.164510 -122.652994 355 9051ft 297kts
29-Dec-17 21:17 45.241904 -122.646838 353 8062ft 267kts
29-Dec-17 21:18 45.309991 -122.675987 331 8057ft 253kts
29-Dec-17 21:19 45.376085 -122.712389 335 7682ft 252kts
29-Dec-17 21:20 45.441058 -122.748050 335 6556ft 245kts
29-Dec-17 21:21 45.501972 -122.781577 334 5325ft 228kts
29-Dec-17 21:22 45.560590 -122.813940 335 5033ft 226kts
29-Dec-17 21:23 45.601111 -122.876966 299 5003ft 224kts
29-Dec-17 21:24 45.632330 -122.949804 299 4043ft 208kts
29-Dec-17 21:25 45.675068 -122.997268 6 4032ft 215kts
29-Dec-17 21:26 45.705265 -122.928903 84 3640ft 227kts
29-Dec-17 21:27 45.682458 -122.847248 119 3032ft 219kts
29-Dec-17 21:28 45.655781 -122.777738 121 2484ft 186kts
29-Dec-17 21:29 45.633175 -122.719285 123 1582ft 152kts
29-Dec-17 21:30 45.613151 -122.667435 121 783ft 148kts
29-Dec-17 21:31 45.596718 -122.625136 124 126ft 149kts
29-Dec-17 21:32 45.586678 -122.597299 31 21ft 6kts
29-Dec-17 21:33 45.587290 -122.596007 111 23ft 9kts
29-Dec-17 21:34 45.587242 -122.593987 25 24ft 6kts
29-Dec-17 21:35 45.587454 -122.593849 22 24ft 0kts
29-Dec-17 21:36 45.587454 -122.593849 22 24ft 0kts

Navigation Log

Ident Type
Flight plan parsing failed, navigation log unavailable